createdAt,value
2018-07-03T00:00:30.288Z,17.10
2018-07-03T00:02:33.391Z,17.10
2018-07-03T00:04:36.476Z,17.10
2018-07-03T00:06:39.580Z,17.10
2018-07-03T00:08:42.659Z,17.00
2018-07-03T00:10:45.735Z,17.00
2018-07-03T00:12:48.815Z,17.00
2018-07-03T00:14:51.899Z,16.90
2018-07-03T00:17:00.552Z,16.90
2018-07-03T00:19:04.162Z,16.80
2018-07-03T00:21:07.268Z,16.80
2018-07-03T00:23:10.372Z,16.80
2018-07-03T00:25:13.452Z,16.70
2018-07-03T00:27:17.372Z,16.70
2018-07-03T00:29:20.455Z,16.60
2018-07-03T00:31:23.564Z,16.60
2018-07-03T00:33:26.644Z,16.50
2018-07-03T00:35:29.796Z,16.50
2018-07-03T00:37:32.879Z,16.50
2018-07-03T00:39:35.961Z,16.40
2018-07-03T00:41:39.065Z,16.40
2018-07-03T00:43:42.144Z,16.30
2018-07-03T00:45:45.308Z,16.30
2018-07-03T00:47:48.391Z,16.20
2018-07-03T00:49:51.472Z,16.20
2018-07-03T00:51:54.580Z,16.10
2018-07-03T00:53:57.664Z,16.10
2018-07-03T00:56:00.800Z,16.00
2018-07-03T00:58:03.929Z,16.00
2018-07-03T01:00:18.335Z,16.00
2018-07-03T01:02:21.446Z,16.00
2018-07-03T01:04:24.538Z,15.90
2018-07-03T01:06:27.744Z,15.90
2018-07-03T01:08:30.871Z,15.90
2018-07-03T01:10:33.967Z,15.80
2018-07-03T01:14:39.959Z,15.80
2018-07-03T01:16:43.064Z,15.80
2018-07-03T01:18:46.202Z,15.80
2018-07-03T01:20:49.311Z,15.70
2018-07-03T01:22:52.644Z,15.70
2018-07-03T01:24:55.804Z,15.70
2018-07-03T01:26:58.995Z,15.60
2018-07-03T01:29:02.088Z,15.60
2018-07-03T01:31:05.273Z,15.50
2018-07-03T01:33:08.376Z,15.50
2018-07-03T01:35:11.543Z,15.50
2018-07-03T01:37:14.623Z,15.50
2018-07-03T01:39:17.727Z,15.50
2018-07-03T01:41:20.821Z,15.40
2018-07-03T01:43:23.907Z,15.40
2018-07-03T01:45:26.991Z,15.40
2018-07-03T01:47:30.075Z,15.30
2018-07-03T01:49:33.164Z,15.30
2018-07-03T01:51:36.263Z,15.30
2018-07-03T01:53:39.368Z,15.30
2018-07-03T01:57:45.399Z,15.20
2018-07-03T01:59:48.487Z,15.20
2018-07-03T02:01:51.588Z,15.20
2018-07-03T02:03:54.682Z,15.10
2018-07-03T02:05:57.785Z,15.10
2018-07-03T02:08:00.876Z,15.10
2018-07-03T02:10:04.163Z,15.00
2018-07-03T02:12:07.257Z,15.00
2018-07-03T02:14:10.354Z,15.00
2018-07-03T02:16:13.448Z,15.00
2018-07-03T02:18:16.552Z,14.90
2018-07-03T02:20:19.656Z,14.90
2018-07-03T02:22:22.744Z,14.90
2018-07-03T02:24:25.846Z,14.80
2018-07-03T02:26:29.408Z,14.80
2018-07-03T02:28:32.518Z,14.80
2018-07-03T02:30:35.645Z,14.80
2018-07-03T02:32:38.738Z,14.80
2018-07-03T02:34:41.820Z,14.70
2018-07-03T02:36:44.923Z,14.70
2018-07-03T02:38:48.088Z,14.70
2018-07-03T02:40:51.168Z,14.60
2018-07-03T02:42:54.278Z,14.60
2018-07-03T02:44:57.440Z,14.60
2018-07-03T02:47:00.549Z,14.60
2018-07-03T02:49:03.827Z,14.60
2018-07-03T02:51:06.936Z,14.50
2018-07-03T02:53:10.048Z,14.50
2018-07-03T02:57:15.996Z,14.40
2018-07-03T02:59:19.080Z,14.40
2018-07-03T03:01:22.202Z,14.30
2018-07-03T03:03:25.325Z,14.30
2018-07-03T03:05:29.284Z,14.30
2018-07-03T03:07:32.392Z,14.30
2018-07-03T03:09:35.473Z,14.30
2018-07-03T03:11:38.651Z,14.30
2018-07-03T03:13:41.735Z,14.30
2018-07-03T03:15:44.828Z,14.30
2018-07-03T03:17:47.975Z,14.30
2018-07-03T03:19:51.078Z,14.30
2018-07-03T03:21:54.408Z,14.30
2018-07-03T03:23:57.510Z,14.20
2018-07-03T03:26:00.595Z,14.20
2018-07-03T03:28:03.726Z,14.20
2018-07-03T03:32:09.888Z,14.20
2018-07-03T03:34:13.004Z,14.20
2018-07-03T03:36:16.108Z,14.20
2018-07-03T03:38:19.207Z,14.20
2018-07-03T03:40:22.295Z,14.20
2018-07-03T03:42:25.380Z,14.20
2018-07-03T03:44:28.489Z,14.20
2018-07-03T03:46:31.600Z,14.20
2018-07-03T03:48:34.705Z,14.20
2018-07-03T03:50:37.783Z,14.20
2018-07-03T03:52:40.871Z,14.20
2018-07-03T03:54:43.959Z,14.20
2018-07-03T03:56:47.052Z,14.20
2018-07-03T03:58:50.140Z,14.30
2018-07-03T04:00:53.357Z,14.30
2018-07-03T04:02:56.484Z,14.30
2018-07-03T04:04:59.568Z,14.40
2018-07-03T04:07:02.661Z,14.40
2018-07-03T04:09:07.888Z,14.40
2018-07-03T04:11:11.312Z,14.40
2018-07-03T04:13:14.384Z,14.50
2018-07-03T04:15:17.471Z,14.50
2018-07-03T04:17:20.584Z,14.50
2018-07-03T04:19:24.130Z,14.50
2018-07-03T04:21:27.232Z,14.60
2018-07-03T04:23:30.749Z,14.60
2018-07-03T04:25:33.827Z,14.70
2018-07-03T04:27:36.900Z,14.70
2018-07-03T04:29:40.000Z,14.70
2018-07-03T04:31:43.081Z,14.70
2018-07-03T04:33:46.166Z,14.70
2018-07-03T04:35:49.255Z,14.80
2018-07-03T04:37:52.323Z,14.80
2018-07-03T04:39:55.411Z,14.90
2018-07-03T04:41:58.519Z,14.90
2018-07-03T04:44:01.610Z,15.00
2018-07-03T04:46:04.735Z,15.10
2018-07-03T04:48:07.816Z,15.10
2018-07-03T04:50:10.939Z,15.20
2018-07-03T04:52:14.110Z,15.20
2018-07-03T04:54:17.210Z,15.30
2018-07-03T04:56:20.302Z,15.30
2018-07-03T04:58:23.381Z,15.40
2018-07-03T05:00:26.464Z,15.40
2018-07-03T05:02:29.635Z,15.60
2018-07-03T05:04:32.730Z,16.10
2018-07-03T05:06:35.819Z,17.00
2018-07-03T05:08:38.906Z,18.20
2018-07-03T05:10:41.996Z,19.20
2018-07-03T05:12:45.280Z,20.30
2018-07-03T05:14:48.355Z,21.30
2018-07-03T05:16:55.683Z,22.20
2018-07-03T05:18:58.811Z,23.00
2018-07-03T05:21:01.929Z,23.70
2018-07-03T05:23:05.017Z,24.30
2018-07-03T05:25:08.092Z,24.80
2018-07-03T05:27:11.183Z,25.10
2018-07-03T05:29:14.298Z,25.40
2018-07-03T05:31:17.396Z,25.80
2018-07-03T05:35:23.459Z,26.50
2018-07-03T05:39:29.584Z,27.40
2018-07-03T05:41:32.755Z,27.90
2018-07-03T05:43:35.857Z,28.20
2018-07-03T05:45:38.935Z,28.40
2018-07-03T05:47:42.032Z,28.60
2018-07-03T05:49:45.411Z,28.90
2018-07-03T05:51:48.511Z,29.30
2018-07-03T05:53:51.672Z,29.40
2018-07-03T05:55:54.878Z,29.60
2018-07-03T05:57:58.792Z,30.00
2018-07-03T06:00:01.949Z,30.20
2018-07-03T06:02:05.205Z,30.40
2018-07-03T06:04:08.320Z,30.60
2018-07-03T06:06:11.403Z,30.90
2018-07-03T06:08:14.600Z,31.20
2018-07-03T06:10:17.692Z,31.20
2018-07-03T06:12:21.011Z,31.30
2018-07-03T06:14:24.109Z,31.40
2018-07-03T06:16:27.277Z,31.60
2018-07-03T06:18:30.364Z,31.70
2018-07-03T06:20:33.435Z,31.70
2018-07-03T06:22:36.979Z,31.90
2018-07-03T06:24:40.065Z,32.20
2018-07-03T06:26:43.144Z,32.30
2018-07-03T06:28:46.287Z,32.40
2018-07-03T06:30:49.360Z,32.60
2018-07-03T06:32:52.540Z,32.40
2018-07-03T06:34:55.641Z,32.60
2018-07-03T06:36:58.715Z,32.60
2018-07-03T06:39:01.905Z,32.80
2018-07-03T06:41:04.980Z,33.20
2018-07-03T06:43:08.176Z,33.40
2018-07-03T06:45:11.365Z,33.60
2018-07-03T06:47:14.463Z,33.80
2018-07-03T06:49:17.544Z,33.80
2018-07-03T06:51:20.674Z,33.90
2018-07-03T06:53:23.780Z,34.00
2018-07-03T06:55:26.896Z,34.00
2018-07-03T06:57:29.979Z,34.00
2018-07-03T06:59:33.069Z,34.00
2018-07-03T07:01:37.140Z,34.10
2018-07-03T07:03:40.380Z,34.10
2018-07-03T07:05:43.480Z,33.60
2018-07-03T07:07:46.564Z,32.60
2018-07-03T07:09:49.664Z,31.60
2018-07-03T07:11:52.751Z,30.70
2018-07-03T07:15:58.768Z,29.10
2018-07-03T07:18:01.853Z,28.20
2018-07-03T07:20:05.652Z,27.40
2018-07-03T07:22:08.739Z,27.00
2018-07-03T07:24:11.841Z,26.70
2018-07-03T07:26:14.932Z,26.30
2018-07-03T07:28:18.018Z,26.00
2018-07-03T07:30:21.124Z,25.80
2018-07-03T07:32:24.229Z,25.70
2018-07-03T07:34:27.332Z,25.70
2018-07-03T07:36:30.428Z,25.70
2018-07-03T07:38:33.513Z,25.60
2018-07-03T07:40:36.604Z,25.50
2018-07-03T07:42:39.683Z,25.30
2018-07-03T07:44:42.776Z,25.30
2018-07-03T07:46:45.872Z,25.30
2018-07-03T07:48:48.955Z,25.50
2018-07-03T07:50:52.027Z,25.60
2018-07-03T07:52:55.109Z,25.50
2018-07-03T07:54:58.233Z,25.20
2018-07-03T07:57:01.305Z,25.10
2018-07-03T07:59:04.565Z,24.90
2018-07-03T08:01:07.651Z,24.80
2018-07-03T08:03:10.740Z,24.90
2018-07-03T08:05:13.819Z,25.10
2018-07-03T08:07:17.798Z,25.10
2018-07-03T08:09:20.889Z,25.10
2018-07-03T08:11:24.512Z,25.20
2018-07-03T08:13:27.675Z,25.30
2018-07-03T08:15:30.768Z,25.50
2018-07-03T08:17:33.956Z,25.60
2018-07-03T08:19:37.031Z,25.60
2018-07-03T08:21:40.224Z,25.50
2018-07-03T08:23:43.303Z,25.50
2018-07-03T08:25:46.406Z,25.30
2018-07-03T08:27:49.481Z,25.20
2018-07-03T08:29:52.567Z,25.20
2018-07-03T08:31:55.656Z,25.30
2018-07-03T08:33:58.800Z,25.50
2018-07-03T08:36:01.836Z,25.60
2018-07-03T08:38:04.924Z,25.70
2018-07-03T08:40:08.202Z,25.70
2018-07-03T08:42:11.294Z,25.80
2018-07-03T08:44:14.380Z,25.80
2018-07-03T08:46:17.479Z,25.60
2018-07-03T08:48:20.559Z,25.50
2018-07-03T08:50:23.655Z,25.60
2018-07-03T08:52:26.759Z,25.70
2018-07-03T08:54:29.852Z,25.70
2018-07-03T08:56:32.944Z,25.80
2018-07-03T08:58:36.044Z,25.80
2018-07-03T09:00:39.136Z,25.90
2018-07-03T09:02:42.239Z,26.10
2018-07-03T09:04:45.336Z,26.10
2018-07-03T09:06:48.449Z,26.20
2018-07-03T09:08:51.592Z,26.40
2018-07-03T09:10:54.705Z,26.50
2018-07-03T09:12:57.803Z,26.60
2018-07-03T09:17:11.053Z,26.70
2018-07-03T09:19:14.179Z,26.70
2018-07-03T09:21:17.280Z,26.70
2018-07-03T09:23:20.391Z,26.80
2018-07-03T09:27:26.451Z,26.80
2018-07-03T09:29:29.548Z,26.90
2018-07-03T09:31:32.673Z,27.10
2018-07-03T09:33:35.890Z,27.20
2018-07-03T09:35:38.985Z,27.30
2018-07-03T09:37:42.114Z,27.40
2018-07-03T09:39:45.215Z,27.50
2018-07-03T09:41:48.317Z,27.50
2018-07-03T09:43:51.678Z,27.60
2018-07-03T09:45:54.793Z,27.40
2018-07-03T09:47:57.885Z,27.30
2018-07-03T09:50:00.979Z,27.30
2018-07-03T09:52:04.139Z,27.40
2018-07-03T09:54:07.331Z,27.40
2018-07-03T09:56:10.425Z,27.50
2018-07-03T09:58:13.520Z,27.40
2018-07-03T10:00:20.857Z,27.50
2018-07-03T10:02:23.976Z,27.50
2018-07-03T10:04:27.060Z,27.40
2018-07-03T10:06:30.160Z,27.30
2018-07-03T10:08:33.235Z,27.20
2018-07-03T10:10:36.315Z,27.20
2018-07-03T10:12:39.421Z,27.30
2018-07-03T10:14:42.503Z,27.50
2018-07-03T10:16:45.588Z,27.60
2018-07-03T10:18:48.742Z,27.70
2018-07-03T10:22:55.132Z,27.90
2018-07-03T10:24:58.612Z,27.90
2018-07-03T10:27:02.682Z,28.00
2018-07-03T10:29:05.761Z,28.00
2018-07-03T10:31:10.188Z,28.00
2018-07-03T10:33:13.929Z,28.00
2018-07-03T10:35:17.051Z,28.00
2018-07-03T10:37:20.293Z,28.10
2018-07-03T10:39:24.009Z,28.00
2018-07-03T10:41:27.813Z,28.00
2018-07-03T10:43:31.355Z,27.90
2018-07-03T10:47:37.736Z,27.70
2018-07-03T10:49:41.088Z,27.70
2018-07-03T10:51:44.268Z,27.70
2018-07-03T10:53:47.372Z,27.80
2018-07-03T10:55:50.480Z,27.80
2018-07-03T10:57:53.624Z,27.70
2018-07-03T10:59:56.803Z,27.80
2018-07-03T11:01:59.908Z,27.80
2018-07-03T11:04:03.017Z,28.00
2018-07-03T11:06:06.128Z,28.00
2018-07-03T11:08:09.225Z,28.10
2018-07-03T11:10:12.319Z,28.30
2018-07-03T11:12:15.419Z,28.50
2018-07-03T11:14:18.538Z,28.50
2018-07-03T11:16:21.632Z,28.70
2018-07-03T11:18:24.737Z,28.80
2018-07-03T11:20:27.958Z,28.90
2018-07-03T11:22:31.533Z,29.00
2018-07-03T11:24:34.643Z,29.00
2018-07-03T11:26:37.784Z,29.00
2018-07-03T11:28:40.832Z,29.00
2018-07-03T11:30:43.945Z,29.10
2018-07-03T11:32:47.041Z,29.00
2018-07-03T11:34:50.166Z,29.00
2018-07-03T11:36:53.384Z,29.00
2018-07-03T11:38:56.493Z,29.00
2018-07-03T11:40:59.590Z,29.00
2018-07-03T11:43:02.736Z,28.90
2018-07-03T11:45:05.795Z,28.90
2018-07-03T11:47:08.888Z,28.90
2018-07-03T11:49:11.980Z,29.10
2018-07-03T11:51:15.256Z,29.10
2018-07-03T11:53:18.336Z,29.20
2018-07-03T11:55:21.436Z,29.20
2018-07-03T11:57:24.524Z,29.00
2018-07-03T11:59:27.635Z,29.00
2018-07-03T12:03:33.599Z,29.00
2018-07-03T12:05:36.677Z,29.00
2018-07-03T12:07:39.782Z,29.00
2018-07-03T12:09:42.862Z,29.00
2018-07-03T12:11:46.112Z,28.90
2018-07-03T12:13:49.200Z,29.00
2018-07-03T12:15:52.299Z,29.00
2018-07-03T12:17:55.447Z,29.10
2018-07-03T12:19:58.540Z,29.20
2018-07-03T12:22:01.640Z,29.30
2018-07-03T12:24:05.085Z,29.30
2018-07-03T12:26:20.888Z,29.30
2018-07-03T12:28:24.296Z,29.10
2018-07-03T12:30:28.285Z,29.10
2018-07-03T12:32:31.386Z,29.20
2018-07-03T12:34:34.913Z,29.30
2018-07-03T12:36:38.019Z,29.30
2018-07-03T12:38:41.119Z,29.20
2018-07-03T12:40:44.199Z,29.00
2018-07-03T12:42:47.427Z,29.20
2018-07-03T12:44:50.528Z,29.30
2018-07-03T12:46:53.793Z,29.40
2018-07-03T12:48:56.879Z,29.40
2018-07-03T12:51:00.160Z,29.50
2018-07-03T12:53:03.256Z,29.40
2018-07-03T12:55:06.355Z,29.30
2018-07-03T12:57:09.438Z,29.20
2018-07-03T12:59:12.500Z,29.20
2018-07-03T13:01:15.578Z,29.40
2018-07-03T13:03:18.671Z,29.60
2018-07-03T13:05:21.956Z,29.70
2018-07-03T13:07:25.069Z,29.70
2018-07-03T13:09:28.156Z,29.80
2018-07-03T13:11:31.246Z,29.80
2018-07-03T13:13:34.332Z,29.90
2018-07-03T13:15:37.408Z,29.90
2018-07-03T13:17:40.513Z,30.00
2018-07-03T13:19:43.595Z,30.00
2018-07-03T13:21:46.688Z,30.00
2018-07-03T13:23:49.789Z,30.00
2018-07-03T13:25:53.009Z,30.10
2018-07-03T13:27:56.088Z,29.90
2018-07-03T13:29:59.198Z,29.90
2018-07-03T13:32:02.288Z,29.90
2018-07-03T13:34:05.524Z,30.00
2018-07-03T13:36:08.584Z,30.00
2018-07-03T13:38:11.715Z,30.00
2018-07-03T13:40:14.810Z,30.00
2018-07-03T13:42:17.907Z,30.00
2018-07-03T13:44:21.004Z,30.10
2018-07-03T13:46:24.083Z,30.10
2018-07-03T13:48:27.292Z,30.20
2018-07-03T13:50:30.275Z,30.20
2018-07-03T13:52:33.389Z,30.20
2018-07-03T13:54:36.513Z,30.10
2018-07-03T13:56:39.599Z,29.90
2018-07-03T13:58:42.699Z,29.90
2018-07-03T14:00:45.784Z,29.90
2018-07-03T14:02:48.879Z,29.90
2018-07-03T14:04:51.972Z,30.00
2018-07-03T14:06:55.112Z,30.10
2018-07-03T14:08:58.315Z,30.00
2018-07-03T14:11:01.395Z,30.00
2018-07-03T14:13:04.486Z,29.90
2018-07-03T14:15:08.687Z,29.90
2018-07-03T14:17:11.771Z,29.90
2018-07-03T14:19:14.875Z,29.80
2018-07-03T14:21:18.008Z,29.70
2018-07-03T14:23:21.096Z,29.70
2018-07-03T14:25:24.220Z,29.70
2018-07-03T14:27:27.333Z,29.70
2018-07-03T14:29:30.444Z,29.70
2018-07-03T14:31:33.576Z,29.70
2018-07-03T14:33:36.680Z,29.80
2018-07-03T14:35:40.068Z,29.80
2018-07-03T14:37:43.165Z,29.80
2018-07-03T14:41:49.256Z,29.80
2018-07-03T14:43:52.344Z,29.70
2018-07-03T14:45:55.480Z,29.70
2018-07-03T14:47:58.587Z,29.80
2018-07-03T14:52:04.776Z,30.00
2018-07-03T14:54:07.892Z,30.10
2018-07-03T14:56:10.991Z,30.00
2018-07-03T14:58:14.084Z,29.90
2018-07-03T15:00:17.164Z,30.00
2018-07-03T15:02:20.368Z,30.10
2018-07-03T15:04:23.368Z,30.10
2018-07-03T15:06:26.459Z,30.10
2018-07-03T15:08:29.528Z,30.20
2018-07-03T15:10:32.632Z,30.30
2018-07-03T15:12:35.725Z,30.30
2018-07-03T15:16:41.776Z,30.40
2018-07-03T15:18:50.277Z,30.30
2018-07-03T15:20:53.380Z,30.30
2018-07-03T15:22:56.444Z,30.40
2018-07-03T15:24:59.527Z,30.40
2018-07-03T15:27:02.633Z,30.40
2018-07-03T15:29:05.708Z,30.30
2018-07-03T15:31:08.804Z,30.20
2018-07-03T15:33:11.908Z,30.30
2018-07-03T15:35:15.113Z,30.20
2018-07-03T15:37:18.213Z,30.20
2018-07-03T15:39:21.310Z,30.30
2018-07-03T15:41:24.388Z,30.40
2018-07-03T15:43:27.477Z,30.30
2018-07-03T15:45:30.569Z,30.40
2018-07-03T15:47:33.902Z,30.40
2018-07-03T15:49:36.977Z,30.40
2018-07-03T15:51:40.075Z,30.30
2018-07-03T15:53:43.198Z,30.20
2018-07-03T15:55:46.368Z,30.20
2018-07-03T15:57:49.477Z,30.30
2018-07-03T15:59:52.571Z,30.30
2018-07-03T16:01:55.672Z,30.30
2018-07-03T16:04:10.605Z,30.20
2018-07-03T16:07:22.823Z,30.20
2018-07-03T16:09:26.023Z,30.20
2018-07-03T16:11:29.059Z,30.20
2018-07-03T16:13:32.162Z,30.20
2018-07-03T16:15:35.249Z,30.30
2018-07-03T16:17:38.356Z,30.40
2018-07-03T16:19:46.868Z,30.40
2018-07-03T16:21:49.980Z,30.30
2018-07-03T16:23:53.081Z,30.10
2018-07-03T16:25:56.185Z,30.10
2018-07-03T16:27:59.318Z,30.10
2018-07-03T16:30:02.780Z,30.20
2018-07-03T16:32:05.913Z,30.10
2018-07-03T16:34:08.995Z,30.20
2018-07-03T16:36:12.088Z,30.20
2018-07-03T16:38:15.192Z,30.30
2018-07-03T16:40:18.450Z,30.30
2018-07-03T16:42:21.547Z,30.40
2018-07-03T16:44:24.665Z,30.30
2018-07-03T16:46:27.936Z,30.10
2018-07-03T16:48:31.178Z,30.00
2018-07-03T16:50:34.271Z,29.90
2018-07-03T16:52:37.364Z,29.90
2018-07-03T16:56:43.410Z,30.10
2018-07-03T16:58:46.514Z,30.10
2018-07-03T17:00:49.633Z,30.00
2018-07-03T17:02:52.741Z,30.00
2018-07-03T17:04:55.833Z,29.90
2018-07-03T17:06:58.936Z,29.90
2018-07-03T17:09:02.024Z,29.90
2018-07-03T17:11:06.119Z,29.80
2018-07-03T17:13:09.211Z,29.80
2018-07-03T17:15:12.292Z,29.80
2018-07-03T17:17:15.384Z,29.90
2018-07-03T17:19:23.913Z,29.90
2018-07-03T17:21:27.015Z,29.90
2018-07-03T17:23:30.109Z,29.80
2018-07-03T17:25:33.236Z,29.70
2018-07-03T17:27:36.324Z,29.60
2018-07-03T17:29:39.424Z,29.50
2018-07-03T17:31:42.511Z,29.40
2018-07-03T17:33:45.626Z,29.40
2018-07-03T17:35:48.684Z,29.50
2018-07-03T17:37:51.784Z,29.50
2018-07-03T17:40:06.313Z,29.40
2018-07-03T17:42:20.704Z,29.30
2018-07-03T17:44:33.391Z,29.20
2018-07-03T17:46:36.476Z,29.10
2018-07-03T17:48:39.556Z,29.20
2018-07-03T17:52:45.593Z,30.30
2018-07-03T17:54:48.698Z,31.80
2018-07-03T17:56:51.799Z,33.60
2018-07-03T17:58:54.983Z,34.10
2018-07-03T18:00:58.076Z,35.20
2018-07-03T18:03:01.311Z,36.10
2018-07-03T18:33:52.544Z,40.60
2018-07-03T18:40:02.060Z,40.80
2018-07-03T18:42:05.306Z,40.40
2018-07-03T18:44:08.425Z,39.70
2018-07-03T18:46:11.575Z,39.20
2018-07-03T18:48:14.693Z,38.60
2018-07-03T18:50:17.796Z,36.80
2018-07-03T18:52:20.912Z,34.70
2018-07-03T18:54:24.049Z,33.00
2018-07-03T18:56:27.095Z,31.90
2018-07-03T18:58:30.951Z,30.90
2018-07-03T19:00:34.030Z,30.20
2018-07-03T19:02:37.125Z,29.60
2018-07-03T19:04:40.204Z,29.00
2018-07-03T19:06:43.302Z,28.50
2018-07-03T19:08:46.992Z,28.20
2018-07-03T19:10:50.075Z,27.80
2018-07-03T19:12:53.180Z,27.70
2018-07-03T19:14:56.299Z,27.70
2018-07-03T19:16:59.530Z,27.60
2018-07-03T19:19:02.724Z,27.50
2018-07-03T19:21:05.979Z,27.30
2018-07-03T19:23:09.060Z,27.10
2018-07-03T19:25:12.156Z,26.90
2018-07-03T19:27:15.240Z,26.50
2018-07-03T19:29:18.332Z,26.30
2018-07-03T19:31:21.421Z,26.20
2018-07-03T19:33:24.512Z,26.00
2018-07-03T19:35:27.620Z,26.00
2018-07-03T19:37:30.699Z,25.90
2018-07-03T19:39:33.856Z,25.80
2018-07-03T19:43:39.805Z,25.50
2018-07-03T19:45:42.875Z,25.50
2018-07-03T19:47:45.957Z,25.40
2018-07-03T19:49:49.095Z,25.20
2018-07-03T19:51:52.507Z,25.10
2018-07-03T19:53:55.603Z,25.00
2018-07-03T19:55:59.372Z,25.00
2018-07-03T19:58:02.475Z,24.90
2018-07-03T20:00:05.809Z,24.80
2018-07-03T20:04:11.844Z,24.70
2018-07-03T20:06:14.952Z,24.60
2018-07-03T20:10:20.940Z,24.30
2018-07-03T20:12:24.049Z,24.20
2018-07-03T20:14:27.164Z,24.10
2018-07-03T20:16:30.276Z,24.00
2018-07-03T20:20:36.621Z,23.90
2018-07-03T20:22:39.710Z,23.80
2018-07-03T20:24:42.806Z,23.70
2018-07-03T20:28:48.818Z,23.60
2018-07-03T20:30:51.907Z,23.50
2018-07-03T20:32:55.017Z,23.50
2018-07-03T20:34:58.119Z,23.40
2018-07-03T20:37:01.773Z,23.30
2018-07-03T20:39:08.456Z,23.20
2018-07-03T20:41:11.553Z,23.10
2018-07-03T20:43:14.653Z,23.10
2018-07-03T20:45:18.728Z,23.10
2018-07-03T20:47:21.820Z,23.00
2018-07-03T20:49:24.917Z,23.00
2018-07-03T20:51:28.027Z,23.00
2018-07-03T20:53:31.142Z,22.90
2018-07-03T20:55:34.236Z,22.80
2018-07-03T20:57:38.307Z,22.70
2018-07-03T21:01:44.263Z,22.50
2018-07-03T21:03:47.427Z,22.50
2018-07-03T21:05:50.626Z,22.50
2018-07-03T21:07:53.568Z,22.50
2018-07-03T21:09:56.657Z,22.40
2018-07-03T21:11:59.754Z,22.30
2018-07-03T21:14:02.842Z,22.20
2018-07-03T21:16:05.944Z,22.20
2018-07-03T21:18:09.026Z,22.20
2018-07-03T21:20:12.128Z,22.20
2018-07-03T21:22:15.901Z,22.20
2018-07-03T21:24:19.068Z,22.10
2018-07-03T21:26:22.236Z,22.10
2018-07-03T21:28:25.329Z,22.10
2018-07-03T21:30:28.423Z,22.10
2018-07-03T21:32:31.496Z,22.00
2018-07-03T21:34:34.604Z,21.90
2018-07-03T21:36:37.708Z,21.80
2018-07-03T21:38:40.813Z,21.80
2018-07-03T21:40:43.894Z,21.80
2018-07-03T21:42:46.995Z,21.70
2018-07-03T21:44:50.080Z,21.70
2018-07-03T21:48:56.451Z,21.60
2018-07-03T21:50:59.559Z,21.50
2018-07-03T21:53:02.656Z,21.40
2018-07-03T21:55:05.753Z,21.30
2018-07-03T21:57:08.836Z,21.30
2018-07-03T21:59:12.431Z,21.30
2018-07-03T22:01:15.528Z,21.30
2018-07-03T22:03:18.652Z,21.20
2018-07-03T22:05:21.748Z,21.20
2018-07-03T22:07:24.831Z,21.10
2018-07-03T22:09:27.929Z,21.10
2018-07-03T22:11:31.012Z,21.10
2018-07-03T22:13:34.117Z,21.00
2018-07-03T22:15:37.291Z,21.00
2018-07-03T22:17:40.388Z,20.90
2018-07-03T22:19:43.474Z,20.80
2018-07-03T22:21:46.866Z,20.80
2018-07-03T22:23:49.947Z,20.80
2018-07-03T22:25:53.044Z,20.60
2018-07-03T22:27:56.160Z,20.60
2018-07-03T22:29:59.305Z,20.50
2018-07-03T22:32:02.484Z,20.50
2018-07-03T22:34:05.559Z,20.50
2018-07-03T22:36:08.635Z,20.50
2018-07-03T22:38:12.752Z,20.40
2018-07-03T22:40:15.949Z,20.40
2018-07-03T22:42:19.040Z,20.40
2018-07-03T22:44:22.147Z,20.30
2018-07-03T22:46:25.232Z,20.30
2018-07-03T22:48:28.329Z,20.20
2018-07-03T22:50:31.457Z,20.20
2018-07-03T22:52:34.568Z,20.10
2018-07-03T22:54:37.663Z,20.10
2018-07-03T22:56:40.952Z,20.10
2018-07-03T22:58:44.136Z,20.00
2018-07-03T23:00:47.264Z,20.00
2018-07-03T23:02:50.373Z,19.90
2018-07-03T23:04:53.475Z,19.90
2018-07-03T23:06:56.584Z,19.90
2018-07-03T23:08:59.734Z,19.80
2018-07-03T23:13:05.835Z,19.70
2018-07-03T23:15:08.964Z,19.60
2018-07-03T23:17:12.077Z,19.60
2018-07-03T23:19:15.176Z,19.60
2018-07-03T23:21:18.275Z,19.50
2018-07-03T23:23:21.372Z,19.50
2018-07-03T23:25:24.500Z,19.50
2018-07-03T23:29:30.467Z,19.40
2018-07-03T23:31:33.710Z,19.30
2018-07-03T23:33:36.876Z,19.20
2018-07-03T23:35:40.076Z,19.20
2018-07-03T23:37:43.172Z,19.10
2018-07-03T23:39:46.296Z,19.10
2018-07-03T23:41:49.412Z,19.00
2018-07-03T23:43:52.516Z,19.00
2018-07-03T23:45:58.595Z,19.00
2018-07-03T23:48:13.194Z,19.00
2018-07-03T23:50:28.223Z,19.00
2018-07-03T23:52:42.956Z,18.90
2018-07-03T23:54:57.366Z,18.80
2018-07-03T23:57:12.229Z,18.80
2018-07-03T23:59:26.764Z,18.80
